sensor_id;sensor_type;location;lat;lon;timestamp;P1;durP1;ratioP1;P2;durP2;ratioP2
63688;SDS011;54895;40.928;14.480;2024-01-15T00:00:44;5.18;;;2.78;;
63688;SDS011;54895;40.928;14.480;2024-01-15T00:03:11;4.57;;;2.10;;
63688;SDS011;54895;40.928;14.480;2024-01-15T00:05:37;7.55;;;2.60;;
63688;SDS011;54895;40.928;14.480;2024-01-15T00:08:04;3.78;;;2.67;;
63688;SDS011;54895;40.928;14.480;2024-01-15T00:10:30;9.13;;;3.35;;
63688;SDS011;54895;40.928;14.480;2024-01-15T00:12:58;7.35;;;3.20;;
63688;SDS011;54895;40.928;14.480;2024-01-15T00:15:24;6.05;;;2.90;;
63688;SDS011;54895;40.928;14.480;2024-01-15T00:17:51;4.82;;;2.72;;
63688;SDS011;54895;40.928;14.480;2024-01-15T00:20:17;4.50;;;2.40;;
63688;SDS011;54895;40.928;14.480;2024-01-15T00:22:43;6.18;;;2.70;;
63688;SDS011;54895;40.928;14.480;2024-01-15T00:25:09;4.63;;;2.95;;
63688;SDS011;54895;40.928;14.480;2024-01-15T00:27:36;5.25;;;2.50;;
63688;SDS011;54895;40.928;14.480;2024-01-15T00:30:02;5.45;;;2.70;;
63688;SDS011;54895;40.928;14.480;2024-01-15T00:32:30;5.93;;;2.78;;
63688;SDS011;54895;40.928;14.480;2024-01-15T00:34:56;6.47;;;3.20;;
63688;SDS011;54895;40.928;14.480;2024-01-15T00:37:23;5.38;;;3.25;;
63688;SDS011;54895;40.928;14.480;2024-01-15T00:39:49;6.35;;;3.50;;
63688;SDS011;54895;40.928;14.480;2024-01-15T00:42:15;5.10;;;3.60;;
63688;SDS011;54895;40.928;14.480;2024-01-15T00:44:42;7.53;;;3.72;;
63688;SDS011;54895;40.928;14.480;2024-01-15T00:47:08;6.30;;;3.80;;
63688;SDS011;54895;40.928;14.480;2024-01-15T00:49:34;6.40;;;3.83;;
63688;SDS011;54895;40.928;14.480;2024-01-15T00:52:01;6.38;;;4.30;;
63688;SDS011;54895;40.928;14.480;2024-01-15T00:58:20;8.80;;;4.60;;
63688;SDS011;54895;40.928;14.480;2024-01-15T01:00:46;7.45;;;4.30;;
63688;SDS011;54895;40.928;14.480;2024-01-15T01:03:13;7.50;;;4.93;;
63688;SDS011;54895;40.928;14.480;2024-01-15T01:05:39;9.18;;;5.57;;
63688;SDS011;54895;40.928;14.480;2024-01-15T01:08:05;9.30;;;6.22;;
63688;SDS011;54895;40.928;14.480;2024-01-15T01:10:33;9.40;;;5.38;;
63688;SDS011;54895;40.928;14.480;2024-01-15T01:12:59;11.80;;;6.60;;
63688;SDS011;54895;40.928;14.480;2024-01-15T01:15:25;12.60;;;7.13;;
63688;SDS011;54895;40.928;14.480;2024-01-15T01:17:52;15.30;;;8.52;;
63688;SDS011;54895;40.928;14.480;2024-01-15T01:20:18;15.63;;;9.02;;
63688;SDS011;54895;40.928;14.480;2024-01-15T01:22:44;14.82;;;10.25;;
63688;SDS011;54895;40.928;14.480;2024-01-15T01:25:10;17.02;;;10.18;;
63688;SDS011;54895;40.928;14.480;2024-01-15T01:27:36;14.40;;;10.80;;
63688;SDS011;54895;40.928;14.480;2024-01-15T01:30:03;15.82;;;10.40;;
63688;SDS011;54895;40.928;14.480;2024-01-15T01:32:29;15.13;;;10.00;;
63688;SDS011;54895;40.928;14.480;2024-01-15T01:34:56;16.15;;;11.20;;
63688;SDS011;54895;40.928;14.480;2024-01-15T01:37:22;14.90;;;9.95;;
63688;SDS011;54895;40.928;14.480;2024-01-15T01:39:48;12.15;;;8.25;;
63688;SDS011;54895;40.928;14.480;2024-01-15T01:42:14;13.95;;;9.95;;
63688;SDS011;54895;40.928;14.480;2024-01-15T01:44:41;15.90;;;9.93;;
63688;SDS011;54895;40.928;14.480;2024-01-15T01:47:07;14.35;;;9.80;;
63688;SDS011;54895;40.928;14.480;2024-01-15T01:49:34;13.00;;;9.07;;
63688;SDS011;54895;40.928;14.480;2024-01-15T01:52:04;12.20;;;8.40;;
63688;SDS011;54895;40.928;14.480;2024-01-15T01:58:15;13.75;;;9.88;;
63688;SDS011;54895;40.928;14.480;2024-01-15T02:00:42;12.82;;;9.02;;
63688;SDS011;54895;40.928;14.480;2024-01-15T02:03:09;11.77;;;7.82;;
63688;SDS011;54895;40.928;14.480;2024-01-15T02:05:35;12.50;;;8.50;;
63688;SDS011;54895;40.928;14.480;2024-01-15T02:08:03;12.40;;;9.30;;
63688;SDS011;54895;40.928;14.480;2024-01-15T02:10:29;11.38;;;9.07;;
63688;SDS011;54895;40.928;14.480;2024-01-15T02:12:56;15.77;;;9.05;;
63688;SDS011;54895;40.928;14.480;2024-01-15T02:15:22;13.25;;;7.35;;
63688;SDS011;54895;40.928;14.480;2024-01-15T02:20:29;11.00;;;7.07;;
63688;SDS011;54895;40.928;14.480;2024-01-15T02:23:18;11.60;;;7.53;;
63688;SDS011;54895;40.928;14.480;2024-01-15T02:25:44;9.75;;;6.57;;
63688;SDS011;54895;40.928;14.480;2024-01-15T02:28:12;9.27;;;6.50;;
63688;SDS011;54895;40.928;14.480;2024-01-15T02:30:43;10.80;;;6.70;;
63688;SDS011;54895;40.928;14.480;2024-01-15T02:33:10;10.07;;;6.30;;
63688;SDS011;54895;40.928;14.480;2024-01-15T02:35:37;11.00;;;7.40;;
63688;SDS011;54895;40.928;14.480;2024-01-15T02:38:07;14.35;;;7.40;;
63688;SDS011;54895;40.928;14.480;2024-01-15T02:40:34;8.02;;;5.88;;
63688;SDS011;54895;40.928;14.480;2024-01-15T02:43:01;10.25;;;5.68;;
63688;SDS011;54895;40.928;14.480;2024-01-15T02:45:27;10.20;;;6.43;;
63688;SDS011;54895;40.928;14.480;2024-01-15T02:47:54;8.50;;;4.90;;
63688;SDS011;54895;40.928;14.480;2024-01-15T02:50:20;9.60;;;6.05;;
63688;SDS011;54895;40.928;14.480;2024-01-15T02:52:46;8.60;;;5.90;;
63688;SDS011;54895;40.928;14.480;2024-01-15T02:58:53;8.63;;;5.93;;
63688;SDS011;54895;40.928;14.480;2024-01-15T03:01:19;7.03;;;4.47;;
63688;SDS011;54895;40.928;14.480;2024-01-15T03:03:46;8.25;;;5.05;;
63688;SDS011;54895;40.928;14.480;2024-01-15T03:06:14;6.53;;;4.97;;
63688;SDS011;54895;40.928;14.480;2024-01-15T03:08:40;8.05;;;4.75;;
63688;SDS011;54895;40.928;14.480;2024-01-15T03:11:06;5.22;;;3.10;;
63688;SDS011;54895;40.928;14.480;2024-01-15T03:13:35;3.45;;;2.63;;
63688;SDS011;54895;40.928;14.480;2024-01-15T03:16:02;6.43;;;3.70;;
63688;SDS011;54895;40.928;14.480;2024-01-15T03:18:30;4.70;;;3.35;;
63688;SDS011;54895;40.928;14.480;2024-01-15T03:20:56;3.88;;;2.85;;
63688;SDS011;54895;40.928;14.480;2024-01-15T03:23:23;4.55;;;3.20;;
63688;SDS011;54895;40.928;14.480;2024-01-15T03:25:49;2.83;;;1.80;;
63688;SDS011;54895;40.928;14.480;2024-01-15T03:28:15;4.45;;;3.38;;
63688;SDS011;54895;40.928;14.480;2024-01-15T03:30:41;3.67;;;2.40;;
63688;SDS011;54895;40.928;14.480;2024-01-15T03:33:09;6.82;;;3.65;;
63688;SDS011;54895;40.928;14.480;2024-01-15T03:35:35;3.25;;;2.40;;
63688;SDS011;54895;40.928;14.480;2024-01-15T03:38:01;3.25;;;2.22;;
63688;SDS011;54895;40.928;14.480;2024-01-15T03:40:28;5.45;;;3.30;;
63688;SDS011;54895;40.928;14.480;2024-01-15T03:42:55;5.82;;;2.90;;
63688;SDS011;54895;40.928;14.480;2024-01-15T03:45:22;2.80;;;2.40;;
63688;SDS011;54895;40.928;14.480;2024-01-15T03:47:48;4.30;;;2.60;;
63688;SDS011;54895;40.928;14.480;2024-01-15T03:50:15;3.67;;;2.40;;
63688;SDS011;54895;40.928;14.480;2024-01-15T03:52:41;4.00;;;2.42;;
63688;SDS011;54895;40.928;14.480;2024-01-15T03:58:47;2.80;;;2.17;;
63688;SDS011;54895;40.928;14.480;2024-01-15T04:01:13;2.97;;;2.53;;
63688;SDS011;54895;40.928;14.480;2024-01-15T04:03:39;3.22;;;2.67;;
63688;SDS011;54895;40.928;14.480;2024-01-15T04:06:06;3.92;;;2.50;;
63688;SDS011;54895;40.928;14.480;2024-01-15T04:08:32;4.47;;;2.90;;
63688;SDS011;54895;40.928;14.480;2024-01-15T04:10:58;3.90;;;2.92;;
63688;SDS011;54895;40.928;14.480;2024-01-15T04:13:24;4.90;;;3.28;;
63688;SDS011;54895;40.928;14.480;2024-01-15T04:15:50;7.22;;;4.47;;
63688;SDS011;54895;40.928;14.480;2024-01-15T04:18:17;6.93;;;4.22;;
63688;SDS011;54895;40.928;14.480;2024-01-15T04:20:46;7.47;;;4.97;;
63688;SDS011;54895;40.928;14.480;2024-01-15T04:23:12;10.23;;;4.88;;
63688;SDS011;54895;40.928;14.480;2024-01-15T04:25:38;6.20;;;4.78;;
63688;SDS011;54895;40.928;14.480;2024-01-15T04:28:08;5.97;;;4.00;;
63688;SDS011;54895;40.928;14.480;2024-01-15T04:30:35;5.07;;;3.80;;
63688;SDS011;54895;40.928;14.480;2024-01-15T04:33:01;6.03;;;4.30;;
63688;SDS011;54895;40.928;14.480;2024-01-15T04:35:27;4.30;;;3.10;;
63688;SDS011;54895;40.928;14.480;2024-01-15T04:37:54;3.55;;;2.80;;
63688;SDS011;54895;40.928;14.480;2024-01-15T04:40:20;6.47;;;3.85;;
63688;SDS011;54895;40.928;14.480;2024-01-15T04:42:46;5.18;;;4.00;;
63688;SDS011;54895;40.928;14.480;2024-01-15T04:45:12;7.97;;;4.47;;
63688;SDS011;54895;40.928;14.480;2024-01-15T04:47:39;6.75;;;4.30;;
63688;SDS011;54895;40.928;14.480;2024-01-15T04:50:06;4.57;;;3.40;;
63688;SDS011;54895;40.928;14.480;2024-01-15T04:52:32;5.35;;;3.65;;
63688;SDS011;54895;40.928;14.480;2024-01-15T04:58:48;6.45;;;4.75;;
63688;SDS011;54895;40.928;14.480;2024-01-15T05:01:15;5.18;;;3.88;;
63688;SDS011;54895;40.928;14.480;2024-01-15T05:03:42;7.13;;;4.65;;
63688;SDS011;54895;40.928;14.480;2024-01-15T05:06:09;9.10;;;5.40;;
63688;SDS011;54895;40.928;14.480;2024-01-15T05:08:35;3.92;;;3.08;;
63688;SDS011;54895;40.928;14.480;2024-01-15T05:11:01;3.88;;;3.08;;
63688;SDS011;54895;40.928;14.480;2024-01-15T05:13:28;4.20;;;3.67;;
63688;SDS011;54895;40.928;14.480;2024-01-15T05:15:54;165.07;;;22.42;;
63688;SDS011;54895;40.928;14.480;2024-01-15T05:18:20;11.02;;;5.95;;
63688;SDS011;54895;40.928;14.480;2024-01-15T05:20:47;9.02;;;6.07;;
63688;SDS011;54895;40.928;14.480;2024-01-15T05:23:13;7.93;;;4.90;;
63688;SDS011;54895;40.928;14.480;2024-01-15T05:25:39;7.80;;;4.72;;
63688;SDS011;54895;40.928;14.480;2024-01-15T05:28:06;6.95;;;4.40;;
63688;SDS011;54895;40.928;14.480;2024-01-15T05:30:32;6.10;;;4.10;;
63688;SDS011;54895;40.928;14.480;2024-01-15T05:32:58;8.68;;;4.88;;
63688;SDS011;54895;40.928;14.480;2024-01-15T05:35:26;5.50;;;4.32;;
63688;SDS011;54895;40.928;14.480;2024-01-15T05:37:52;5.93;;;4.15;;
63688;SDS011;54895;40.928;14.480;2024-01-15T05:40:18;6.03;;;3.88;;
63688;SDS011;54895;40.928;14.480;2024-01-15T05:42:45;6.70;;;4.32;;
63688;SDS011;54895;40.928;14.480;2024-01-15T05:45:13;8.30;;;4.55;;
63688;SDS011;54895;40.928;14.480;2024-01-15T05:47:39;7.45;;;5.05;;
63688;SDS011;54895;40.928;14.480;2024-01-15T05:50:06;5.60;;;4.03;;
63688;SDS011;54895;40.928;14.480;2024-01-15T05:52:32;5.18;;;4.03;;
63688;SDS011;54895;40.928;14.480;2024-01-15T05:58:44;7.10;;;4.93;;
63688;SDS011;54895;40.928;14.480;2024-01-15T06:01:10;5.85;;;5.22;;
63688;SDS011;54895;40.928;14.480;2024-01-15T06:03:37;6.00;;;4.63;;
63688;SDS011;54895;40.928;14.480;2024-01-15T06:06:03;7.35;;;5.00;;
63688;SDS011;54895;40.928;14.480;2024-01-15T06:08:29;5.07;;;4.10;;
63688;SDS011;54895;40.928;14.480;2024-01-15T06:10:56;5.20;;;4.40;;
63688;SDS011;54895;40.928;14.480;2024-01-15T06:13:22;5.97;;;4.80;;
63688;SDS011;54895;40.928;14.480;2024-01-15T06:15:48;5.95;;;4.35;;
63688;SDS011;54895;40.928;14.480;2024-01-15T06:18:15;6.75;;;4.05;;
63688;SDS011;54895;40.928;14.480;2024-01-15T06:20:42;5.40;;;4.00;;
63688;SDS011;54895;40.928;14.480;2024-01-15T06:23:08;4.50;;;3.90;;
63688;SDS011;54895;40.928;14.480;2024-01-15T06:25:34;6.15;;;4.50;;
63688;SDS011;54895;40.928;14.480;2024-01-15T06:28:00;6.82;;;4.90;;
63688;SDS011;54895;40.928;14.480;2024-01-15T06:30:27;6.60;;;4.40;;
63688;SDS011;54895;40.928;14.480;2024-01-15T06:32:53;7.10;;;5.18;;
63688;SDS011;54895;40.928;14.480;2024-01-15T06:35:20;4.97;;;4.40;;
63688;SDS011;54895;40.928;14.480;2024-01-15T06:37:46;7.35;;;5.30;;
63688;SDS011;54895;40.928;14.480;2024-01-15T06:40:14;5.20;;;4.10;;
63688;SDS011;54895;40.928;14.480;2024-01-15T06:42:40;4.18;;;3.53;;
63688;SDS011;54895;40.928;14.480;2024-01-15T06:45:08;4.25;;;3.58;;
63688;SDS011;54895;40.928;14.480;2024-01-15T06:47:34;6.72;;;4.95;;
63688;SDS011;54895;40.928;14.480;2024-01-15T06:50:00;9.05;;;5.82;;
63688;SDS011;54895;40.928;14.480;2024-01-15T06:52:27;8.45;;;5.20;;
63688;SDS011;54895;40.928;14.480;2024-01-15T06:59:03;6.38;;;5.18;;
63688;SDS011;54895;40.928;14.480;2024-01-15T07:01:29;6.82;;;5.07;;
63688;SDS011;54895;40.928;14.480;2024-01-15T07:03:55;6.80;;;5.40;;
63688;SDS011;54895;40.928;14.480;2024-01-15T07:06:22;7.05;;;5.30;;
63688;SDS011;54895;40.928;14.480;2024-01-15T07:08:48;8.30;;;5.43;;
63688;SDS011;54895;40.928;14.480;2024-01-15T07:11:15;7.55;;;6.07;;
63688;SDS011;54895;40.928;14.480;2024-01-15T07:13:43;7.85;;;5.60;;
63688;SDS011;54895;40.928;14.480;2024-01-15T07:16:09;7.72;;;5.53;;
63688;SDS011;54895;40.928;14.480;2024-01-15T07:18:35;7.38;;;5.63;;
63688;SDS011;54895;40.928;14.480;2024-01-15T07:21:02;9.05;;;6.15;;
63688;SDS011;54895;40.928;14.480;2024-01-15T07:23:29;10.05;;;6.25;;
63688;SDS011;54895;40.928;14.480;2024-01-15T07:25:57;12.55;;;6.25;;
63688;SDS011;54895;40.928;14.480;2024-01-15T07:28:24;9.93;;;7.13;;
63688;SDS011;54895;40.928;14.480;2024-01-15T07:30:50;9.27;;;6.72;;
63688;SDS011;54895;40.928;14.480;2024-01-15T07:33:16;7.40;;;5.55;;
63688;SDS011;54895;40.928;14.480;2024-01-15T07:35:42;8.10;;;5.78;;
63688;SDS011;54895;40.928;14.480;2024-01-15T07:38:08;9.57;;;6.35;;
63688;SDS011;54895;40.928;14.480;2024-01-15T07:40:36;9.05;;;7.18;;
63688;SDS011;54895;40.928;14.480;2024-01-15T07:43:02;9.93;;;7.63;;
63688;SDS011;54895;40.928;14.480;2024-01-15T07:45:29;11.02;;;8.77;;
63688;SDS011;54895;40.928;14.480;2024-01-15T07:47:56;12.27;;;9.20;;
63688;SDS011;54895;40.928;14.480;2024-01-15T07:50:22;17.13;;;12.38;;
63688;SDS011;54895;40.928;14.480;2024-01-15T07:52:48;12.73;;;8.82;;
63688;SDS011;54895;40.928;14.480;2024-01-15T07:58:58;20.38;;;14.00;;
63688;SDS011;54895;40.928;14.480;2024-01-15T08:01:25;13.40;;;10.07;;
63688;SDS011;54895;40.928;14.480;2024-01-15T08:03:52;12.48;;;9.52;;
63688;SDS011;54895;40.928;14.480;2024-01-15T08:06:18;18.25;;;12.45;;
63688;SDS011;54895;40.928;14.480;2024-01-15T08:08:45;17.17;;;13.00;;
63688;SDS011;54895;40.928;14.480;2024-01-15T08:11:11;14.65;;;11.18;;
63688;SDS011;54895;40.928;14.480;2024-01-15T08:13:37;12.20;;;9.40;;
63688;SDS011;54895;40.928;14.480;2024-01-15T08:16:04;12.52;;;9.30;;
63688;SDS011;54895;40.928;14.480;2024-01-15T08:18:30;13.55;;;10.57;;
63688;SDS011;54895;40.928;14.480;2024-01-15T08:20:56;15.13;;;11.10;;
63688;SDS011;54895;40.928;14.480;2024-01-15T08:23:25;14.60;;;10.82;;
63688;SDS011;54895;40.928;14.480;2024-01-15T08:25:57;13.82;;;10.00;;
63688;SDS011;54895;40.928;14.480;2024-01-15T08:28:24;16.83;;;11.27;;
63688;SDS011;54895;40.928;14.480;2024-01-15T08:30:50;15.02;;;9.88;;
63688;SDS011;54895;40.928;14.480;2024-01-15T08:33:16;13.00;;;10.18;;
63688;SDS011;54895;40.928;14.480;2024-01-15T08:35:42;15.40;;;10.10;;
63688;SDS011;54895;40.928;14.480;2024-01-15T08:38:08;15.32;;;9.43;;
63688;SDS011;54895;40.928;14.480;2024-01-15T08:40:35;16.92;;;10.40;;
63688;SDS011;54895;40.928;14.480;2024-01-15T08:43:01;16.25;;;11.63;;
63688;SDS011;54895;40.928;14.480;2024-01-15T08:45:27;15.32;;;12.25;;
63688;SDS011;54895;40.928;14.480;2024-01-15T08:47:54;15.73;;;11.70;;
63688;SDS011;54895;40.928;14.480;2024-01-15T08:50:20;18.98;;;12.32;;
63688;SDS011;54895;40.928;14.480;2024-01-15T08:52:46;15.27;;;12.48;;
63688;SDS011;54895;40.928;14.480;2024-01-15T08:59:17;14.52;;;11.05;;
63688;SDS011;54895;40.928;14.480;2024-01-15T09:01:50;17.52;;;12.27;;
63688;SDS011;54895;40.928;14.480;2024-01-15T09:04:16;18.83;;;10.90;;
63688;SDS011;54895;40.928;14.480;2024-01-15T09:06:46;20.10;;;12.20;;
63688;SDS011;54895;40.928;14.480;2024-01-15T09:09:12;16.92;;;12.77;;
63688;SDS011;54895;40.928;14.480;2024-01-15T09:11:42;17.20;;;12.48;;
63688;SDS011;54895;40.928;14.480;2024-01-15T09:14:08;17.02;;;11.73;;
63688;SDS011;54895;40.928;14.480;2024-01-15T09:16:35;17.25;;;11.98;;
63688;SDS011;54895;40.928;14.480;2024-01-15T09:19:01;15.63;;;12.25;;
63688;SDS011;54895;40.928;14.480;2024-01-15T09:21:30;16.45;;;12.70;;
63688;SDS011;54895;40.928;14.480;2024-01-15T09:23:56;16.90;;;13.35;;
63688;SDS011;54895;40.928;14.480;2024-01-15T09:26:24;17.80;;;13.27;;
63688;SDS011;54895;40.928;14.480;2024-01-15T09:28:50;17.27;;;12.90;;
63688;SDS011;54895;40.928;14.480;2024-01-15T09:31:17;18.52;;;13.73;;
63688;SDS011;54895;40.928;14.480;2024-01-15T09:33:44;18.85;;;13.25;;
63688;SDS011;54895;40.928;14.480;2024-01-15T09:36:10;19.58;;;13.43;;
63688;SDS011;54895;40.928;14.480;2024-01-15T09:38:36;18.88;;;14.35;;
63688;SDS011;54895;40.928;14.480;2024-01-15T09:41:03;19.33;;;13.57;;
63688;SDS011;54895;40.928;14.480;2024-01-15T09:43:29;21.90;;;13.55;;
63688;SDS011;54895;40.928;14.480;2024-01-15T09:45:56;19.95;;;12.05;;
63688;SDS011;54895;40.928;14.480;2024-01-15T09:48:23;17.10;;;11.70;;
63688;SDS011;54895;40.928;14.480;2024-01-15T09:50:50;19.25;;;12.95;;
63688;SDS011;54895;40.928;14.480;2024-01-15T09:53:16;18.48;;;13.23;;
63688;SDS011;54895;40.928;14.480;2024-01-15T09:55:43;21.50;;;13.27;;
63688;SDS011;54895;40.928;14.480;2024-01-15T09:58:10;16.88;;;11.52;;
63688;SDS011;54895;40.928;14.480;2024-01-15T10:00:36;16.77;;;12.75;;
63688;SDS011;54895;40.928;14.480;2024-01-15T10:03:04;17.90;;;11.77;;
63688;SDS011;54895;40.928;14.480;2024-01-15T10:05:32;17.83;;;12.70;;
63688;SDS011;54895;40.928;14.480;2024-01-15T10:07:59;17.80;;;12.68;;
63688;SDS011;54895;40.928;14.480;2024-01-15T10:10:27;16.73;;;12.88;;
63688;SDS011;54895;40.928;14.480;2024-01-15T10:12:53;25.92;;;14.23;;
63688;SDS011;54895;40.928;14.480;2024-01-15T10:15:25;31.75;;;18.13;;
63688;SDS011;54895;40.928;14.480;2024-01-15T10:17:52;33.35;;;23.23;;
63688;SDS011;54895;40.928;14.480;2024-01-15T10:20:18;24.90;;;15.68;;
63688;SDS011;54895;40.928;14.480;2024-01-15T10:22:45;19.45;;;14.45;;
63688;SDS011;54895;40.928;14.480;2024-01-15T10:25:15;20.48;;;12.77;;
63688;SDS011;54895;40.928;14.480;2024-01-15T10:27:43;23.05;;;14.02;;
63688;SDS011;54895;40.928;14.480;2024-01-15T10:30:10;21.05;;;14.10;;
63688;SDS011;54895;40.928;14.480;2024-01-15T10:32:37;19.15;;;12.65;;
63688;SDS011;54895;40.928;14.480;2024-01-15T10:35:04;18.80;;;13.77;;
63688;SDS011;54895;40.928;14.480;2024-01-15T10:37:33;21.58;;;14.45;;
63688;SDS011;54895;40.928;14.480;2024-01-15T10:40:01;23.13;;;15.70;;
63688;SDS011;54895;40.928;14.480;2024-01-15T10:42:30;26.73;;;15.93;;
63688;SDS011;54895;40.928;14.480;2024-01-15T10:44:57;23.42;;;16.52;;
63688;SDS011;54895;40.928;14.480;2024-01-15T10:47:24;23.77;;;16.02;;
63688;SDS011;54895;40.928;14.480;2024-01-15T10:49:50;26.08;;;16.15;;
63688;SDS011;54895;40.928;14.480;2024-01-15T10:52:18;20.80;;;15.70;;
63688;SDS011;54895;40.928;14.480;2024-01-15T10:54:45;17.38;;;13.07;;
63688;SDS011;54895;40.928;14.480;2024-01-15T11:00:04;14.65;;;9.23;;
63688;SDS011;54895;40.928;14.480;2024-01-15T11:02:32;16.70;;;9.18;;
63688;SDS011;54895;40.928;14.480;2024-01-15T11:05:00;13.65;;;8.93;;
63688;SDS011;54895;40.928;14.480;2024-01-15T11:07:26;12.90;;;7.90;;
63688;SDS011;54895;40.928;14.480;2024-01-15T11:09:53;13.70;;;8.52;;
63688;SDS011;54895;40.928;14.480;2024-01-15T11:12:19;15.68;;;8.40;;
63688;SDS011;54895;40.928;14.480;2024-01-15T11:14:46;13.32;;;7.47;;
63688;SDS011;54895;40.928;14.480;2024-01-15T11:17:13;12.43;;;7.53;;
63688;SDS011;54895;40.928;14.480;2024-01-15T11:19:43;13.68;;;4.28;;
63688;SDS011;54895;40.928;14.480;2024-01-15T11:24:56;15.65;;;8.70;;
63688;SDS011;54895;40.928;14.480;2024-01-15T11:30:18;13.38;;;6.97;;
63688;SDS011;54895;40.928;14.480;2024-01-15T11:32:48;13.63;;;7.20;;
63688;SDS011;54895;40.928;14.480;2024-01-15T11:35:14;10.52;;;4.63;;
63688;SDS011;54895;40.928;14.480;2024-01-15T11:43:02;13.15;;;4.28;;
63688;SDS011;54895;40.928;14.480;2024-01-15T11:45:28;10.65;;;3.33;;
63688;SDS011;54895;40.928;14.480;2024-01-15T11:48:15;10.43;;;3.78;;
63688;SDS011;54895;40.928;14.480;2024-01-15T11:59:41;7.57;;;2.88;;
63688;SDS011;54895;40.928;14.480;2024-01-15T12:02:07;8.68;;;3.33;;
63688;SDS011;54895;40.928;14.480;2024-01-15T12:04:33;11.50;;;3.00;;
63688;SDS011;54895;40.928;14.480;2024-01-15T12:07:00;9.18;;;3.20;;
63688;SDS011;54895;40.928;14.480;2024-01-15T12:09:27;8.20;;;3.00;;
63688;SDS011;54895;40.928;14.480;2024-01-15T12:11:55;6.18;;;2.90;;
63688;SDS011;54895;40.928;14.480;2024-01-15T12:14:31;9.73;;;2.50;;
63688;SDS011;54895;40.928;14.480;2024-01-15T12:16:58;7.57;;;2.80;;
63688;SDS011;54895;40.928;14.480;2024-01-15T12:19:24;7.95;;;3.25;;
63688;SDS011;54895;40.928;14.480;2024-01-15T12:21:51;12.43;;;2.97;;
63688;SDS011;54895;40.928;14.480;2024-01-15T12:24:17;7.13;;;2.72;;
63688;SDS011;54895;40.928;14.480;2024-01-15T12:26:43;10.95;;;3.20;;
63688;SDS011;54895;40.928;14.480;2024-01-15T12:29:10;6.63;;;2.97;;
63688;SDS011;54895;40.928;14.480;2024-01-15T12:31:37;6.97;;;2.70;;
63688;SDS011;54895;40.928;14.480;2024-01-15T12:34:03;12.43;;;5.65;;
63688;SDS011;54895;40.928;14.480;2024-01-15T12:36:33;8.70;;;2.60;;
63688;SDS011;54895;40.928;14.480;2024-01-15T12:38:59;6.63;;;2.97;;
63688;SDS011;54895;40.928;14.480;2024-01-15T12:41:26;7.68;;;2.95;;
63688;SDS011;54895;40.928;14.480;2024-01-15T12:43:52;9.35;;;2.50;;
63688;SDS011;54895;40.928;14.480;2024-01-15T12:46:18;8.95;;;2.42;;
63688;SDS011;54895;40.928;14.480;2024-01-15T12:48:45;9.38;;;2.53;;
63688;SDS011;54895;40.928;14.480;2024-01-15T12:51:11;13.18;;;1.90;;
63688;SDS011;54895;40.928;14.480;2024-01-15T12:53:37;7.13;;;2.20;;
63688;SDS011;54895;40.928;14.480;2024-01-15T12:59:55;9.00;;;2.20;;
63688;SDS011;54895;40.928;14.480;2024-01-15T13:02:21;3.95;;;1.92;;
63688;SDS011;54895;40.928;14.480;2024-01-15T13:04:47;8.75;;;2.67;;
63688;SDS011;54895;40.928;14.480;2024-01-15T13:07:14;8.77;;;2.60;;
63688;SDS011;54895;40.928;14.480;2024-01-15T13:09:40;8.77;;;2.08;;
63688;SDS011;54895;40.928;14.480;2024-01-15T13:12:06;9.45;;;2.90;;
63688;SDS011;54895;40.928;14.480;2024-01-15T13:14:33;7.47;;;2.72;;
63688;SDS011;54895;40.928;14.480;2024-01-15T13:16:59;8.30;;;2.15;;
63688;SDS011;54895;40.928;14.480;2024-01-15T13:19:28;7.85;;;2.70;;
63688;SDS011;54895;40.928;14.480;2024-01-15T13:21:54;6.18;;;1.70;;
63688;SDS011;54895;40.928;14.480;2024-01-15T13:24:24;6.47;;;2.30;;
63688;SDS011;54895;40.928;14.480;2024-01-15T13:26:53;6.25;;;2.22;;
63688;SDS011;54895;40.928;14.480;2024-01-15T13:29:19;8.82;;;2.13;;
63688;SDS011;54895;40.928;14.480;2024-01-15T13:31:45;6.07;;;2.28;;
63688;SDS011;54895;40.928;14.480;2024-01-15T13:34:12;7.75;;;2.83;;
63688;SDS011;54895;40.928;14.480;2024-01-15T13:36:38;11.55;;;3.60;;
63688;SDS011;54895;40.928;14.480;2024-01-15T13:39:05;7.82;;;3.65;;
63688;SDS011;54895;40.928;14.480;2024-01-15T13:41:35;6.70;;;2.90;;
63688;SDS011;54895;40.928;14.480;2024-01-15T13:44:02;7.03;;;2.92;;
63688;SDS011;54895;40.928;14.480;2024-01-15T13:46:28;6.47;;;3.63;;
63688;SDS011;54895;40.928;14.480;2024-01-15T13:48:57;11.50;;;5.20;;
63688;SDS011;54895;40.928;14.480;2024-01-15T13:51:24;14.73;;;5.95;;
63688;SDS011;54895;40.928;14.480;2024-01-15T13:53:50;12.00;;;5.63;;
63688;SDS011;54895;40.928;14.480;2024-01-15T13:59:53;10.05;;;4.80;;
63688;SDS011;54895;40.928;14.480;2024-01-15T14:02:19;14.38;;;6.30;;
63688;SDS011;54895;40.928;14.480;2024-01-15T14:04:46;13.82;;;7.70;;
63688;SDS011;54895;40.928;14.480;2024-01-15T14:07:13;11.85;;;6.07;;
63688;SDS011;54895;40.928;14.480;2024-01-15T14:09:39;10.23;;;6.95;;
63688;SDS011;54895;40.928;14.480;2024-01-15T14:12:05;10.02;;;5.55;;
63688;SDS011;54895;40.928;14.480;2024-01-15T14:14:32;10.88;;;4.35;;
63688;SDS011;54895;40.928;14.480;2024-01-15T14:16:59;7.53;;;4.13;;
63688;SDS011;54895;40.928;14.480;2024-01-15T14:19:25;14.70;;;6.25;;
63688;SDS011;54895;40.928;14.480;2024-01-15T14:21:51;14.80;;;5.50;;
63688;SDS011;54895;40.928;14.480;2024-01-15T14:24:17;19.60;;;7.55;;
63688;SDS011;54895;40.928;14.480;2024-01-15T14:26:44;11.50;;;6.70;;
63688;SDS011;54895;40.928;14.480;2024-01-15T14:29:11;14.52;;;6.70;;
63688;SDS011;54895;40.928;14.480;2024-01-15T14:31:37;17.02;;;7.28;;
63688;SDS011;54895;40.928;14.480;2024-01-15T14:34:04;9.63;;;4.95;;
63688;SDS011;54895;40.928;14.480;2024-01-15T14:36:31;14.85;;;6.57;;
63688;SDS011;54895;40.928;14.480;2024-01-15T14:38:57;10.75;;;6.13;;
63688;SDS011;54895;40.928;14.480;2024-01-15T14:41:23;12.90;;;6.90;;
63688;SDS011;54895;40.928;14.480;2024-01-15T14:43:49;13.05;;;6.90;;
63688;SDS011;54895;40.928;14.480;2024-01-15T14:46:16;10.63;;;5.80;;
63688;SDS011;54895;40.928;14.480;2024-01-15T14:48:42;11.30;;;6.70;;
63688;SDS011;54895;40.928;14.480;2024-01-15T14:51:08;15.73;;;8.48;;
63688;SDS011;54895;40.928;14.480;2024-01-15T14:53:34;17.65;;;6.72;;
63688;SDS011;54895;40.928;14.480;2024-01-15T14:56:01;19.33;;;8.40;;
63688;SDS011;54895;40.928;14.480;2024-01-15T14:58:28;14.27;;;7.57;;
63688;SDS011;54895;40.928;14.480;2024-01-15T15:00:55;13.02;;;7.47;;
63688;SDS011;54895;40.928;14.480;2024-01-15T15:03:21;18.67;;;7.68;;
63688;SDS011;54895;40.928;14.480;2024-01-15T15:05:47;15.77;;;7.53;;
63688;SDS011;54895;40.928;14.480;2024-01-15T15:08:14;15.10;;;7.97;;
63688;SDS011;54895;40.928;14.480;2024-01-15T15:10:40;12.48;;;6.50;;
63688;SDS011;54895;40.928;14.480;2024-01-15T15:13:07;12.45;;;7.15;;
63688;SDS011;54895;40.928;14.480;2024-01-15T15:15:33;14.18;;;7.55;;
63688;SDS011;54895;40.928;14.480;2024-01-15T15:18:00;12.63;;;8.10;;
63688;SDS011;54895;40.928;14.480;2024-01-15T15:20:26;15.07;;;6.40;;
63688;SDS011;54895;40.928;14.480;2024-01-15T15:22:52;16.52;;;9.10;;
63688;SDS011;54895;40.928;14.480;2024-01-15T15:25:22;13.30;;;6.18;;
63688;SDS011;54895;40.928;14.480;2024-01-15T15:27:49;12.68;;;5.15;;
63688;SDS011;54895;40.928;14.480;2024-01-15T15:30:15;10.85;;;5.18;;